createdAt,value
2019-04-01T00:01:03.497Z,7.57
2019-04-01T00:03:35.022Z,9.00
2019-04-01T00:06:06.465Z,8.27
2019-04-01T00:08:39.266Z,8.67
2019-04-01T00:11:10.596Z,8.33
2019-04-01T00:13:43.270Z,9.10
2019-04-01T00:16:15.951Z,7.83
2019-04-01T00:19:02.066Z,8.63
2019-04-01T00:21:22.531Z,9.43
2019-04-01T00:23:55.224Z,8.03
2019-04-01T00:26:27.901Z,9.07
2019-04-01T00:28:59.369Z,8.37
2019-04-01T00:31:32.872Z,7.80
2019-04-01T00:34:04.405Z,7.63
2019-04-01T00:36:35.852Z,7.97
2019-04-01T00:39:08.535Z,7.40
2019-04-01T00:41:42.858Z,7.67
2019-04-01T00:44:14.215Z,7.53
2019-04-01T00:46:46.877Z,7.87
2019-04-01T00:49:19.577Z,8.13
2019-04-01T00:51:52.234Z,7.97
2019-04-01T00:54:26.764Z,7.20
2019-04-01T00:56:58.210Z,7.67
2019-04-01T00:59:31.833Z,8.20
2019-04-01T01:02:03.268Z,7.50
2019-04-01T01:04:34.792Z,8.07
2019-04-01T01:07:07.571Z,8.00
2019-04-01T01:09:39.813Z,7.63
2019-04-01T01:12:11.235Z,7.90
2019-04-01T01:14:42.840Z,8.47
2019-04-01T01:17:16.278Z,7.33
2019-04-01T01:19:47.754Z,7.20
2019-04-01T01:22:19.189Z,8.20
2019-04-01T01:24:50.647Z,7.13
2019-04-01T01:27:22.081Z,7.80
2019-04-01T01:29:54.777Z,7.40
2019-04-01T01:32:26.208Z,8.47
2019-04-01T01:34:57.693Z,8.87
2019-04-01T01:37:29.286Z,8.30
2019-04-01T01:40:01.794Z,8.10
2019-04-01T01:42:34.783Z,8.10
2019-04-01T01:45:07.942Z,7.60
2019-04-01T01:47:40.455Z,7.10
2019-04-01T01:50:12.829Z,8.23
2019-04-01T01:52:44.357Z,8.50
2019-04-01T01:55:18.213Z,8.23
2019-04-01T01:57:49.627Z,7.37
2019-04-01T02:00:23.584Z,6.70
2019-04-01T02:02:54.995Z,6.43
2019-04-01T02:05:26.442Z,5.80
2019-04-01T02:07:59.135Z,6.57
2019-04-01T02:10:30.568Z,6.40
2019-04-01T02:13:03.273Z,6.43
2019-04-01T02:15:35.624Z,5.57
2019-04-01T02:18:08.328Z,6.10
2019-04-01T02:20:41.917Z,5.97
2019-04-01T02:23:14.597Z,5.03
2019-04-01T02:25:47.273Z,6.13
2019-04-01T02:28:19.959Z,5.73
2019-04-01T02:30:51.399Z,5.47
2019-04-01T02:33:24.405Z,5.97
2019-04-01T02:35:57.989Z,4.70
2019-04-01T02:38:29.460Z,5.20
2019-04-01T02:41:00.921Z,4.97
2019-04-01T02:43:33.572Z,5.40
2019-04-01T02:46:05.100Z,4.67
2019-04-01T02:48:37.715Z,4.83
2019-04-01T02:51:10.689Z,5.17
2019-04-01T02:53:43.373Z,5.07
2019-04-01T02:56:16.049Z,5.17
2019-04-01T02:58:48.750Z,5.37
2019-04-01T03:01:21.111Z,4.80
2019-04-01T03:03:53.790Z,12.47
2019-04-01T03:06:25.241Z,7.33
2019-04-01T03:08:58.073Z,7.10
2019-04-01T03:11:31.340Z,9.07
2019-04-01T03:14:04.059Z,10.10
2019-04-01T03:16:36.582Z,8.47
2019-04-01T03:19:08.194Z,8.87
2019-04-01T03:21:40.703Z,8.23
2019-04-01T03:24:13.381Z,8.27
2019-04-01T03:26:46.985Z,8.50
2019-04-01T03:29:18.432Z,8.37
2019-04-01T03:31:49.891Z,9.47
2019-04-01T03:34:21.832Z,10.53
2019-04-01T03:36:57.084Z,9.93
2019-04-01T03:39:29.773Z,9.77
2019-04-01T03:42:03.996Z,7.37
2019-04-01T03:44:36.665Z,7.00
2019-04-01T03:47:08.423Z,7.77
2019-04-01T03:49:41.118Z,7.30
2019-04-01T03:52:12.565Z,7.67
2019-04-01T03:54:45.245Z,9.27
2019-04-01T03:57:17.919Z,9.13
2019-04-01T03:59:49.383Z,7.47
2019-04-01T04:02:20.823Z,8.00
2019-04-01T04:04:53.517Z,7.57
2019-04-01T04:07:26.494Z,16.13
2019-04-01T04:09:59.168Z,11.80
2019-04-01T04:12:31.854Z,9.57
2019-04-01T04:15:04.302Z,9.03
2019-04-01T04:17:35.666Z,9.07
2019-04-01T04:20:07.208Z,6.07
2019-04-01T04:22:39.808Z,7.10
2019-04-01T04:25:12.482Z,5.73
2019-04-01T04:27:46.083Z,6.57
2019-04-01T04:30:19.833Z,8.17
2019-04-01T04:32:51.164Z,9.50
2019-04-01T04:35:23.511Z,9.27
2019-04-01T04:37:54.961Z,8.90
2019-04-01T04:40:27.641Z,8.60
2019-04-01T04:43:00.320Z,12.93
2019-04-01T04:45:32.725Z,9.53
2019-04-01T04:48:06.600Z,20.17
2019-04-01T04:50:38.060Z,19.70
2019-04-01T04:53:11.978Z,24.03
2019-04-01T04:55:43.414Z,19.63
2019-04-01T04:58:17.561Z,24.50
2019-04-01T05:00:49.094Z,18.03
2019-04-01T05:03:21.450Z,21.83
2019-04-01T05:05:53.357Z,24.07
2019-04-01T05:08:24.679Z,17.07
2019-04-01T05:10:58.887Z,14.27
2019-04-01T05:13:31.580Z,21.30
2019-04-01T05:16:03.332Z,27.27
2019-04-01T05:18:35.109Z,22.97
2019-04-01T05:21:06.552Z,22.63
2019-04-01T05:23:37.995Z,21.80
2019-04-01T05:26:09.921Z,16.13
2019-04-01T05:28:42.454Z,18.73
2019-04-01T05:31:14.715Z,19.00
2019-04-01T05:33:55.334Z,18.17
2019-04-01T05:36:20.456Z,25.70
2019-04-01T05:38:54.983Z,31.03
2019-04-01T05:41:26.471Z,38.33
2019-04-01T05:44:02.127Z,21.93
2019-04-01T05:46:33.041Z,18.93
2019-04-01T05:49:04.478Z,16.30
2019-04-01T05:51:35.929Z,15.40
2019-04-01T05:54:08.365Z,13.90
2019-04-01T05:56:41.052Z,15.53
2019-04-01T05:59:12.440Z,16.30
2019-04-01T06:01:46.757Z,17.57
2019-04-01T06:04:18.117Z,15.17
2019-04-01T06:06:49.551Z,14.47
2019-04-01T06:09:21.095Z,13.37
2019-04-01T06:11:53.697Z,13.07
2019-04-01T06:14:25.034Z,12.67
2019-04-01T06:16:56.361Z,11.37
2019-04-01T06:19:29.024Z,11.33
2019-04-01T06:22:00.451Z,10.30
2019-04-01T06:24:31.893Z,9.97
2019-04-01T06:27:03.313Z,10.53
2019-04-01T06:29:34.862Z,9.60
2019-04-01T06:32:06.222Z,11.40
2019-04-01T06:34:51.927Z,10.67
2019-04-01T06:37:11.913Z,9.73
2019-04-01T06:39:43.355Z,9.43
2019-04-01T06:42:14.793Z,9.57
2019-04-01T06:44:46.275Z,8.57
2019-04-01T06:47:17.680Z,9.03
2019-04-01T06:49:51.329Z,8.57
2019-04-01T06:52:23.960Z,8.03
2019-04-01T06:54:56.673Z,9.00
2019-04-01T06:57:29.023Z,10.47
2019-04-01T07:00:02.652Z,10.20
2019-04-01T07:02:34.080Z,11.20
2019-04-01T07:05:06.873Z,12.60
2019-04-01T07:07:38.217Z,11.50
2019-04-01T07:10:09.688Z,10.37
2019-04-01T07:12:41.124Z,12.17
2019-04-01T07:15:12.606Z,13.73
2019-04-01T07:17:44.033Z,9.00
2019-04-01T07:20:15.482Z,6.40
2019-04-01T07:22:48.554Z,4.73
2019-04-01T07:25:21.230Z,5.50
2019-04-01T07:27:52.575Z,6.87
2019-04-01T07:30:24.072Z,7.03
2019-04-01T07:32:55.509Z,5.10
2019-04-01T07:35:26.953Z,5.57
2019-04-01T07:37:58.398Z,5.97
2019-04-01T07:40:29.897Z,11.20
2019-04-01T07:43:01.623Z,4.57
2019-04-01T07:45:39.011Z,5.17
2019-04-01T07:48:12.813Z,6.57
2019-04-01T07:50:44.994Z,4.90
2019-04-01T07:53:17.542Z,9.37
2019-04-01T07:55:50.242Z,6.20
2019-04-01T07:58:21.678Z,4.43
2019-04-01T08:00:53.148Z,4.73
2019-04-01T08:03:29.478Z,5.10
2019-04-01T08:06:03.434Z,5.30
2019-04-01T08:08:34.865Z,5.20
2019-04-01T08:11:06.197Z,4.43
2019-04-01T08:13:39.054Z,4.60
2019-04-01T08:16:10.440Z,5.00
2019-04-01T08:18:43.130Z,6.93
2019-04-01T08:21:15.490Z,4.50
2019-04-01T08:23:46.949Z,3.97
2019-04-01T08:26:18.491Z,4.47
2019-04-01T08:28:51.139Z,3.17
2019-04-01T08:31:22.552Z,6.90
2019-04-01T08:33:54.062Z,3.37
2019-04-01T08:36:26.720Z,1.63
2019-04-01T08:38:59.374Z,3.30
2019-04-01T08:41:31.220Z,3.27
2019-04-01T08:44:03.376Z,2.93
2019-04-01T08:46:35.573Z,1.70
2019-04-01T08:49:08.037Z,3.17
2019-04-01T08:51:41.269Z,4.10
2019-04-01T08:54:13.628Z,3.33
2019-04-01T08:56:46.855Z,1.97
2019-04-01T08:59:19.868Z,1.67
2019-04-01T09:01:55.074Z,1.93
2019-04-01T09:04:28.208Z,1.90
2019-04-01T09:07:01.377Z,5.60
2019-04-01T09:09:32.991Z,2.83
2019-04-01T09:12:04.880Z,1.77
2019-04-01T09:14:37.610Z,1.13
2019-04-01T09:17:09.053Z,1.43
2019-04-01T09:19:45.094Z,1.07
2019-04-01T09:22:16.583Z,1.03
2019-04-01T09:24:48.028Z,1.27
2019-04-01T09:27:19.786Z,0.90
2019-04-01T09:29:51.397Z,1.17
2019-04-01T09:32:24.076Z,1.37
2019-04-01T09:34:57.679Z,1.20
2019-04-01T09:37:33.693Z,0.83
2019-04-01T09:40:07.972Z,0.97
2019-04-01T09:42:41.645Z,0.93
2019-04-01T09:45:15.164Z,1.43
2019-04-01T09:47:48.414Z,1.37
2019-04-01T09:50:20.035Z,1.00
2019-04-01T09:52:54.356Z,3.57
2019-04-01T09:55:25.891Z,2.10
2019-04-01T09:57:58.228Z,1.17
2019-04-01T10:00:33.077Z,1.27
2019-04-01T10:03:05.759Z,1.53
2019-04-01T10:05:38.754Z,1.23
2019-04-01T10:08:11.441Z,1.50
2019-04-01T10:10:46.540Z,1.43
2019-04-01T10:13:19.259Z,0.73
2019-04-01T10:15:50.707Z,1.50
2019-04-01T10:18:22.185Z,1.27
2019-04-01T10:20:56.059Z,2.50
2019-04-01T10:23:27.629Z,1.10
2019-04-01T10:25:59.015Z,2.40
2019-04-01T10:28:32.118Z,1.53
2019-04-01T10:31:05.403Z,1.50
2019-04-01T10:33:38.050Z,2.67
2019-04-01T10:36:10.908Z,1.23
2019-04-01T10:38:42.558Z,1.00
2019-04-01T10:41:14.140Z,1.90
2019-04-01T10:43:46.672Z,1.00
2019-04-01T10:46:20.015Z,1.40
2019-04-01T10:48:51.568Z,1.07
2019-04-01T10:51:25.156Z,1.10
2019-04-01T10:54:00.650Z,1.13
2019-04-01T10:56:35.676Z,1.30
2019-04-01T10:59:06.281Z,1.17
2019-04-01T11:01:38.962Z,0.93
2019-04-01T11:04:17.288Z,1.40
2019-04-01T11:06:48.646Z,1.33
2019-04-01T11:09:37.409Z,1.37
2019-04-01T11:11:56.232Z,0.90
2019-04-01T11:14:27.569Z,1.57
2019-04-01T11:17:17.514Z,1.90
2019-04-01T11:19:48.961Z,2.33
2019-04-01T11:22:20.372Z,3.97
2019-04-01T11:24:51.807Z,2.23
2019-04-01T11:27:23.717Z,1.20
2019-04-01T11:29:56.246Z,1.50
2019-04-01T11:32:28.977Z,1.50
2019-04-01T11:35:01.658Z,1.33
2019-04-01T11:37:34.316Z,1.80
2019-04-01T11:40:11.359Z,1.97
2019-04-01T11:42:42.158Z,1.30
2019-04-01T11:45:16.524Z,1.33
2019-04-01T11:47:48.127Z,0.97
2019-04-01T11:50:19.562Z,1.60
2019-04-01T11:52:51.955Z,1.47
2019-04-01T11:55:23.797Z,1.67
2019-04-01T11:57:56.343Z,1.13
2019-04-01T12:00:28.718Z,2.13
2019-04-01T12:03:02.686Z,1.33
2019-04-01T12:05:38.491Z,1.03
2019-04-01T12:08:09.850Z,0.90
2019-04-01T12:10:41.315Z,1.10
2019-04-01T12:13:19.762Z,1.60
2019-04-01T12:15:51.297Z,1.17
2019-04-01T12:18:26.430Z,1.30
2019-04-01T12:21:01.219Z,2.03
2019-04-01T12:23:32.690Z,1.47
2019-04-01T12:26:15.151Z,1.50
2019-04-01T12:28:38.643Z,1.57
2019-04-01T12:31:15.755Z,5.70
2019-04-01T12:33:54.163Z,2.93
2019-04-01T12:36:25.602Z,1.50
2019-04-01T12:39:01.633Z,1.40
2019-04-01T12:41:36.941Z,1.40
2019-04-01T12:44:11.255Z,1.57
2019-04-01T12:46:43.381Z,1.47
2019-04-01T12:49:14.906Z,9.23
2019-04-01T12:51:59.406Z,4.90
2019-04-01T12:54:32.106Z,1.70
2019-04-01T12:57:11.439Z,7.80
2019-04-01T12:59:45.809Z,3.50
2019-04-01T13:02:22.077Z,19.93
2019-04-01T13:04:56.489Z,2.80
2019-04-01T13:07:33.557Z,9.93
2019-04-01T13:10:07.756Z,12.17
2019-04-01T13:12:39.699Z,2.50
2019-04-01T13:15:12.598Z,10.47
2019-04-01T13:17:45.647Z,3.80
2019-04-01T13:20:17.100Z,7.23
2019-04-01T13:22:49.250Z,3.93
2019-04-01T13:25:27.261Z,13.93
2019-04-01T13:28:02.866Z,4.70
2019-04-01T13:30:34.288Z,8.00
2019-04-01T13:33:05.730Z,5.67
2019-04-01T13:35:40.016Z,3.03
2019-04-01T13:38:12.919Z,8.13
2019-04-01T13:40:47.836Z,4.23
2019-04-01T13:43:20.444Z,2.00
2019-04-01T13:45:54.663Z,14.97
2019-04-01T13:48:27.338Z,14.90
2019-04-01T13:51:01.605Z,2.43
2019-04-01T13:53:32.995Z,8.43
2019-04-01T13:56:06.005Z,3.70
2019-04-01T13:58:39.309Z,5.17
2019-04-01T14:01:14.052Z,2.77
2019-04-01T14:03:45.583Z,2.00
2019-04-01T14:06:17.323Z,16.00
2019-04-01T14:08:51.159Z,17.57
2019-04-01T14:11:25.760Z,10.00
2019-04-01T14:14:01.950Z,5.07
2019-04-01T14:16:36.354Z,4.20
2019-04-01T14:19:07.802Z,5.13
2019-04-01T14:21:39.239Z,2.40
2019-04-01T14:24:14.184Z,2.33
2019-04-01T14:26:50.098Z,3.70
2019-04-01T14:29:21.594Z,3.30
2019-04-01T14:31:53.025Z,2.70
2019-04-01T14:34:30.174Z,4.30
2019-04-01T14:37:12.358Z,7.13
2019-04-01T14:39:49.092Z,31.63
2019-04-01T14:42:22.481Z,7.60
2019-04-01T14:44:58.922Z,3.70
2019-04-01T14:47:49.960Z,1.93
2019-04-01T14:50:10.996Z,3.53
2019-04-01T14:52:43.395Z,2.93
2019-04-01T14:55:15.728Z,7.00
2019-04-01T14:57:54.804Z,5.63
2019-04-01T15:00:20.805Z,3.40
2019-04-01T15:02:52.231Z,5.60
2019-04-01T15:05:23.685Z,5.47
2019-04-01T15:07:56.368Z,5.40
2019-04-01T15:10:28.728Z,9.47
2019-04-01T15:13:05.744Z,4.33
2019-04-01T15:15:43.893Z,5.00
2019-04-01T15:18:22.063Z,2.17
2019-04-01T15:21:06.263Z,4.10
2019-04-01T15:23:54.153Z,3.37
2019-04-01T15:26:43.695Z,5.00
2019-04-01T15:29:15.256Z,5.20
2019-04-01T15:31:46.699Z,4.07
2019-04-01T15:34:18.621Z,4.27
2019-04-01T15:36:50.830Z,7.20
2019-04-01T15:39:23.503Z,5.20
2019-04-01T15:41:56.221Z,4.60
2019-04-01T15:44:29.321Z,3.90
2019-04-01T15:47:04.494Z,2.47
2019-04-01T15:49:36.391Z,5.10
2019-04-01T15:52:07.837Z,3.60
2019-04-01T15:54:39.303Z,2.63
2019-04-01T15:57:15.073Z,6.03
2019-04-01T15:59:45.860Z,9.50
2019-04-01T16:02:17.619Z,4.53
2019-04-01T16:04:50.722Z,8.63
2019-04-01T16:07:22.577Z,14.13
2019-04-01T16:09:59.649Z,18.03
2019-04-01T16:12:32.640Z,9.87
2019-04-01T16:15:09.056Z,5.63
2019-04-01T16:17:42.287Z,7.83
2019-04-01T16:20:14.223Z,12.83
2019-04-01T16:22:46.743Z,9.57
2019-04-01T16:25:18.219Z,6.60
2019-04-01T16:27:50.880Z,8.67
2019-04-01T16:30:23.562Z,9.37
2019-04-01T16:32:56.241Z,24.07
2019-04-01T16:35:27.789Z,11.97
2019-04-01T16:38:00.692Z,16.40
2019-04-01T16:40:33.358Z,12.93
2019-04-01T16:43:06.065Z,16.57
2019-04-01T16:45:39.074Z,16.93
2019-04-01T16:48:10.869Z,12.53
2019-04-01T16:50:43.935Z,11.47
2019-04-01T16:53:17.511Z,7.80
2019-04-01T16:55:48.831Z,13.47
2019-04-01T16:58:21.673Z,13.93
2019-04-01T17:00:55.826Z,13.60
2019-04-01T17:03:27.781Z,15.53
2019-04-01T17:06:00.471Z,22.33
2019-04-01T17:08:34.383Z,15.17
2019-04-01T17:11:06.980Z,19.80
2019-04-01T17:13:38.527Z,23.10
2019-04-01T17:16:09.954Z,24.80
2019-04-01T17:18:42.656Z,10.80
2019-04-01T17:21:14.095Z,16.77
2019-04-01T17:23:47.528Z,18.87
2019-04-01T17:26:19.233Z,17.60
2019-04-01T17:28:50.629Z,20.50
2019-04-01T17:31:24.852Z,13.30
2019-04-01T17:33:56.283Z,23.40
2019-04-01T17:36:29.345Z,20.33
2019-04-01T17:39:02.287Z,57.10
2019-04-01T17:41:35.856Z,49.03
2019-04-01T17:44:07.318Z,36.00
2019-04-01T17:46:38.761Z,31.80
2019-04-01T17:49:10.208Z,39.03
2019-04-01T17:51:41.638Z,35.63
2019-04-01T17:54:14.340Z,24.17
2019-04-01T17:56:47.165Z,28.00
2019-04-01T17:59:19.098Z,23.87
2019-04-01T18:01:50.541Z,21.07
2019-04-01T18:04:23.286Z,27.20
2019-04-01T18:06:58.254Z,18.77
2019-04-01T18:09:31.183Z,19.93
2019-04-01T18:12:02.856Z,12.43
2019-04-01T18:14:36.328Z,19.07
2019-04-01T18:17:07.856Z,14.07
2019-04-01T18:19:39.330Z,17.90
2019-04-01T18:22:12.370Z,21.97
2019-04-01T18:24:43.819Z,13.40
2019-04-01T18:27:15.456Z,7.60
2019-04-01T18:29:46.972Z,15.20
2019-04-01T18:32:18.412Z,16.77
2019-04-01T18:34:49.881Z,12.43
2019-04-01T18:37:21.491Z,17.87
2019-04-01T18:39:53.076Z,74.83
2019-04-01T18:42:26.672Z,25.60
2019-04-01T18:44:57.473Z,28.17
2019-04-01T18:47:28.941Z,29.90
2019-04-01T18:50:02.149Z,22.17
2019-04-01T18:52:34.443Z,25.17
2019-04-01T18:55:07.991Z,39.70
2019-04-01T18:57:40.581Z,21.30
2019-04-01T19:00:12.102Z,11.80
2019-04-01T19:02:43.553Z,14.40
2019-04-01T19:05:14.932Z,16.43
2019-04-01T19:07:46.457Z,11.50
2019-04-01T19:10:17.897Z,12.73
2019-04-01T19:13:05.084Z,11.73
2019-04-01T19:15:28.455Z,11.97
2019-04-01T19:18:05.662Z,9.83
2019-04-01T19:20:38.095Z,12.57
2019-04-01T19:23:16.266Z,13.07
2019-04-01T19:25:49.908Z,13.53
2019-04-01T19:28:25.061Z,10.40
2019-04-01T19:30:56.526Z,14.07
2019-04-01T19:33:27.934Z,37.47
2019-04-01T19:36:01.396Z,49.57
2019-04-01T19:38:34.354Z,72.43
2019-04-01T19:41:08.007Z,92.53
2019-04-01T19:43:39.720Z,59.40
2019-04-01T19:46:14.452Z,50.60
2019-04-01T19:48:49.232Z,60.53
2019-04-01T19:51:30.527Z,37.50
2019-04-01T19:54:04.033Z,42.37
2019-04-01T19:56:42.660Z,51.03
2019-04-01T19:59:19.485Z,57.10
2019-04-01T20:01:54.478Z,24.00
2019-04-01T20:04:32.910Z,25.17
2019-04-01T20:07:05.415Z,25.60
2019-04-01T20:09:41.815Z,21.97
2019-04-01T20:12:16.743Z,11.10
2019-04-01T20:14:48.360Z,15.60
2019-04-01T20:17:23.701Z,47.73
2019-04-01T20:20:06.818Z,34.43
2019-04-01T20:22:37.506Z,16.67
2019-04-01T20:25:09.485Z,29.40
2019-04-01T20:27:43.221Z,18.60
2019-04-01T20:30:15.816Z,10.80
2019-04-01T20:32:49.457Z,10.07
2019-04-01T20:35:24.121Z,12.80
2019-04-01T20:37:57.342Z,12.87
2019-04-01T20:40:40.311Z,10.67
2019-04-01T20:43:09.831Z,14.97
2019-04-01T20:45:41.845Z,17.50
2019-04-01T20:48:22.740Z,20.63
2019-04-01T20:50:57.557Z,16.67
2019-04-01T20:53:37.319Z,15.07
2019-04-01T20:56:14.665Z,15.37
2019-04-01T20:58:51.752Z,20.90
2019-04-01T21:01:24.033Z,31.03
2019-04-01T21:03:58.789Z,10.90
2019-04-01T21:06:31.918Z,10.47
2019-04-01T21:09:11.490Z,8.43
2019-04-01T21:11:44.704Z,8.20
2019-04-01T21:14:16.139Z,7.13
2019-04-01T21:16:49.748Z,7.93
2019-04-01T21:19:22.440Z,8.20
2019-04-01T21:21:57.067Z,9.47
2019-04-01T21:24:29.686Z,11.47
2019-04-01T21:27:02.946Z,11.30
2019-04-01T21:29:37.523Z,11.10
2019-04-01T21:32:16.151Z,10.53
2019-04-01T21:34:55.414Z,9.87
2019-04-01T21:37:29.301Z,9.73
2019-04-01T21:40:00.836Z,11.27
2019-04-01T21:42:32.212Z,12.40
2019-04-01T21:45:09.828Z,10.03
2019-04-01T21:47:41.680Z,11.40
2019-04-01T21:50:17.170Z,9.97
2019-04-01T21:52:51.255Z,14.23
2019-04-01T21:55:22.681Z,10.23
2019-04-01T21:57:55.359Z,10.63
2019-04-01T22:00:29.674Z,11.17
2019-04-01T22:03:04.540Z,14.93
2019-04-01T22:05:36.641Z,12.40
2019-04-01T22:08:10.406Z,14.27
2019-04-01T22:10:41.826Z,13.47
2019-04-01T22:13:13.290Z,12.10
2019-04-01T22:15:44.725Z,11.73
2019-04-01T22:18:19.342Z,11.67
2019-04-01T22:20:52.252Z,10.20
2019-04-01T22:23:25.861Z,7.97
2019-04-01T22:25:59.012Z,9.47
2019-04-01T22:28:30.912Z,7.63
2019-04-01T22:31:03.591Z,9.27
2019-04-01T22:33:36.251Z,7.20
2019-04-01T22:36:07.713Z,9.07
2019-04-01T22:38:40.400Z,8.03
2019-04-01T22:41:11.850Z,8.87
2019-04-01T22:43:43.375Z,8.27
2019-04-01T22:46:14.786Z,8.37
2019-04-01T22:48:47.776Z,8.33
2019-04-01T22:51:19.198Z,7.57
2019-04-01T22:53:50.645Z,7.10
2019-04-01T22:56:23.630Z,7.27
2019-04-01T22:58:56.303Z,7.90
2019-04-01T23:01:28.976Z,8.80
2019-04-01T23:04:00.446Z,8.73
2019-04-01T23:06:31.889Z,8.43
2019-04-01T23:09:07.006Z,7.77
2019-04-01T23:11:40.018Z,9.07
2019-04-01T23:14:11.466Z,6.83
2019-04-01T23:16:44.141Z,8.80
2019-04-01T23:19:16.828Z,7.27
2019-04-01T23:21:49.508Z,8.50
2019-04-01T23:24:23.108Z,7.47
2019-04-01T23:26:55.736Z,8.40
2019-04-01T23:29:29.505Z,6.77
2019-04-01T23:32:00.834Z,7.60
2019-04-01T23:34:33.289Z,7.73
2019-04-01T23:37:05.886Z,8.07
2019-04-01T23:39:38.563Z,6.40
2019-04-01T23:42:11.240Z,7.90
2019-04-01T23:44:42.775Z,8.83
2019-04-01T23:47:16.587Z,7.90
2019-04-01T23:49:49.287Z,7.77
2019-04-01T23:52:21.961Z,8.07
2019-04-01T23:54:54.642Z,6.93
2019-04-01T23:57:27.326Z,7.77
